Terminal Aerodrome Forecast
Issued by NWS Wilmington, NC

Home | Current Version | Previous Version | Text Only | Print | Product List | Glossary On
Versions: 1 2 3 4 5 6 7 8 9 10 11 12 13 14 15 16 17 18 19 20
000
FTUS42 KILM 022320
TAFFLO
TAF
KFLO 022320Z 0300/0324 28015KT 6SM -SHRA VCTS SCT008 SCT020
      BKN050CB
      TEMPO 0300/0303 3SM +RA BKN020
     FM030300 23008KT P6SM VCSH SCT050 BKN070 BKN200
     FM031300 24010KT P6SM SCT070 BKN200
     FM031600 24015G22KT P6SM VCTS SCT030 BKN050CB=

USA.gov is the U.S. government's official web portal to all federal, state and local government web resources and services.